sensor_id;sensor_type;location;lat;lon;timestamp;pressure;altitude;pressure_sealevel;temperature;humidity
23172;BME280;11754;42.664;23.594;2023-04-29T00:05:23;95492.13;;;6.10;65.77
23172;BME280;11754;42.664;23.594;2023-04-29T00:07:48;95484.53;;;6.07;65.72
23172;BME280;11754;42.664;23.594;2023-04-29T00:10:14;95488.09;;;6.16;65.33
23172;BME280;11754;42.664;23.594;2023-04-29T00:12:40;95496.66;;;6.18;65.10
23172;BME280;11754;42.664;23.594;2023-04-29T00:15:06;95488.25;;;6.14;65.16
23172;BME280;11754;42.664;23.594;2023-04-29T00:17:33;95490.75;;;6.06;65.33
23172;BME280;11754;42.664;23.594;2023-04-29T00:19:58;95500.09;;;6.09;65.26
23172;BME280;11754;42.664;23.594;2023-04-29T00:25:45;95492.38;;;5.97;66.08
23172;BME280;11754;42.664;23.594;2023-04-29T00:28:10;95496.63;;;5.98;66.26
23172;BME280;11754;42.664;23.594;2023-04-29T00:30:36;95491.00;;;5.93;66.87
23172;BME280;11754;42.664;23.594;2023-04-29T00:33:01;95494.81;;;5.89;66.58
23172;BME280;11754;42.664;23.594;2023-04-29T00:35:27;95496.75;;;5.87;67.29
23172;BME280;11754;42.664;23.594;2023-04-29T00:37:52;95493.31;;;5.87;67.27
23172;BME280;11754;42.664;23.594;2023-04-29T00:40:17;95494.59;;;5.92;66.81
23172;BME280;11754;42.664;23.594;2023-04-29T00:49:26;95488.34;;;5.74;67.00
23172;BME280;11754;42.664;23.594;2023-04-29T00:51:52;95484.34;;;5.70;67.41
23172;BME280;11754;42.664;23.594;2023-04-29T00:54:19;95474.56;;;5.72;67.16
23172;BME280;11754;42.664;23.594;2023-04-29T00:56:45;95484.34;;;5.70;67.66
23172;BME280;11754;42.664;23.594;2023-04-29T00:59:11;95473.75;;;5.71;67.56
23172;BME280;11754;42.664;23.594;2023-04-29T01:01:39;95464.50;;;5.67;67.65
23172;BME280;11754;42.664;23.594;2023-04-29T01:21:10;95458.47;;;5.67;68.41
23172;BME280;11754;42.664;23.594;2023-04-29T01:23:35;95461.75;;;5.69;68.44
23172;BME280;11754;42.664;23.594;2023-04-29T01:26:01;95461.75;;;5.69;68.57
23172;BME280;11754;42.664;23.594;2023-04-29T01:33:46;95456.78;;;5.75;67.94
23172;BME280;11754;42.664;23.594;2023-04-29T01:39:08;95470.28;;;5.61;67.42
23172;BME280;11754;42.664;23.594;2023-04-29T01:41:56;95464.75;;;5.45;66.99
23172;BME280;11754;42.664;23.594;2023-04-29T01:44:28;95463.34;;;5.31;67.05
23172;BME280;11754;42.664;23.594;2023-04-29T01:46:54;95458.38;;;5.28;67.03
23172;BME280;11754;42.664;23.594;2023-04-29T01:49:27;95460.84;;;5.20;67.40
23172;BME280;11754;42.664;23.594;2023-04-29T01:51:52;95455.16;;;5.15;67.68
23172;BME280;11754;42.664;23.594;2023-04-29T01:54:18;95455.03;;;5.06;67.68
23172;BME280;11754;42.664;23.594;2023-04-29T01:56:44;95459.69;;;5.03;68.05
23172;BME280;11754;42.664;23.594;2023-04-29T01:59:09;95461.16;;;4.96;68.51
23172;BME280;11754;42.664;23.594;2023-04-29T02:01:35;95475.59;;;4.90;69.66
23172;BME280;11754;42.664;23.594;2023-04-29T02:39:10;95446.84;;;4.60;72.00
23172;BME280;11754;42.664;23.594;2023-04-29T02:41:35;95457.06;;;4.63;72.08
23172;BME280;11754;42.664;23.594;2023-04-29T02:44:00;95448.66;;;4.59;72.19
23172;BME280;11754;42.664;23.594;2023-04-29T02:46:26;95435.41;;;4.51;71.90
23172;BME280;11754;42.664;23.594;2023-04-29T02:55:53;95463.28;;;4.50;73.85
23172;BME280;11754;42.664;23.594;2023-04-29T02:58:19;95452.56;;;4.44;73.92
23172;BME280;11754;42.664;23.594;2023-04-29T03:00:45;95455.69;;;4.38;73.86
23172;BME280;11754;42.664;23.594;2023-04-29T03:03:10;95457.47;;;4.37;74.38
23172;BME280;11754;42.664;23.594;2023-04-29T03:05:35;95457.72;;;4.34;74.29
23172;BME280;11754;42.664;23.594;2023-04-29T03:08:01;95463.06;;;4.32;74.66
23172;BME280;11754;42.664;23.594;2023-04-29T03:10:28;95473.63;;;4.31;74.35
23172;BME280;11754;42.664;23.594;2023-04-29T03:22:59;95482.53;;;4.49;73.88
23172;BME280;11754;42.664;23.594;2023-04-29T03:25:25;95487.94;;;4.57;73.90
23172;BME280;11754;42.664;23.594;2023-04-29T03:27:50;95484.81;;;4.64;73.63
23172;BME280;11754;42.664;23.594;2023-04-29T03:30:15;95486.75;;;4.62;73.13
23172;BME280;11754;42.664;23.594;2023-04-29T03:32:41;95490.63;;;4.67;73.02
23172;BME280;11754;42.664;23.594;2023-04-29T03:35:07;95485.44;;;4.77;72.51
23172;BME280;11754;42.664;23.594;2023-04-29T04:39:44;95503.16;;;6.90;64.05
23172;BME280;11754;42.664;23.594;2023-04-29T04:42:09;95492.47;;;7.01;63.42
23172;BME280;11754;42.664;23.594;2023-04-29T04:44:35;95478.63;;;7.18;62.37
23172;BME280;11754;42.664;23.594;2023-04-29T04:47:00;95472.22;;;7.21;62.42
23172;BME280;11754;42.664;23.594;2023-04-29T04:49:26;95480.88;;;7.31;62.80
23172;BME280;11754;42.664;23.594;2023-04-29T04:51:52;95494.19;;;7.47;62.70
23172;BME280;11754;42.664;23.594;2023-04-29T04:54:18;95489.78;;;7.48;63.45
23172;BME280;11754;42.664;23.594;2023-04-29T04:56:43;95493.31;;;7.57;64.15
23172;BME280;11754;42.664;23.594;2023-04-29T04:59:08;95493.03;;;7.60;64.61
23172;BME280;11754;42.664;23.594;2023-04-29T05:01:34;95496.03;;;7.65;64.68
23172;BME280;11754;42.664;23.594;2023-04-29T05:03:59;95495.66;;;7.78;64.16
23172;BME280;11754;42.664;23.594;2023-04-29T05:06:26;95492.59;;;7.82;64.68
23172;BME280;11754;42.664;23.594;2023-04-29T05:08:52;95485.56;;;8.01;64.17
23172;BME280;11754;42.664;23.594;2023-04-29T05:11:18;95499.44;;;8.11;64.23
23172;BME280;11754;42.664;23.594;2023-04-29T05:13:44;95499.72;;;8.26;63.39
23172;BME280;11754;42.664;23.594;2023-04-29T05:16:10;95485.78;;;8.43;62.60
23172;BME280;11754;42.664;23.594;2023-04-29T05:18:37;95481.47;;;8.60;62.75
23172;BME280;11754;42.664;23.594;2023-04-29T05:21:02;95481.25;;;8.79;62.31
23172;BME280;11754;42.664;23.594;2023-04-29T05:23:28;95483.84;;;8.97;61.41
23172;BME280;11754;42.664;23.594;2023-04-29T05:25:54;95475.88;;;9.15;61.44
23172;BME280;11754;42.664;23.594;2023-04-29T05:28:19;95471.13;;;9.61;60.33
23172;BME280;11754;42.664;23.594;2023-04-29T05:30:45;95479.41;;;9.99;60.07
23172;BME280;11754;42.664;23.594;2023-04-29T05:33:11;95468.25;;;10.13;58.49
23172;BME280;11754;42.664;23.594;2023-04-29T05:35:36;95464.97;;;10.19;56.71
23172;BME280;11754;42.664;23.594;2023-04-29T05:38:02;95460.72;;;10.26;56.95
23172;BME280;11754;42.664;23.594;2023-04-29T06:27:31;95431.84;;;12.15;46.55
23172;BME280;11754;42.664;23.594;2023-04-29T06:29:56;95442.88;;;12.18;47.35
23172;BME280;11754;42.664;23.594;2023-04-29T06:32:22;95438.06;;;12.22;46.15
23172;BME280;11754;42.664;23.594;2023-04-29T06:34:47;95444.06;;;12.39;46.85
23172;BME280;11754;42.664;23.594;2023-04-29T07:57:49;95393.28;;;18.09;33.45
23172;BME280;11754;42.664;23.594;2023-04-29T08:00:14;95392.72;;;17.49;33.81
23172;BME280;11754;42.664;23.594;2023-04-29T08:02:40;95389.19;;;17.62;35.03
23172;BME280;11754;42.664;23.594;2023-04-29T08:05:06;95387.16;;;18.02;34.68
23172;BME280;11754;42.664;23.594;2023-04-29T08:07:38;95380.63;;;18.55;34.38
23172;BME280;11754;42.664;23.594;2023-04-29T08:10:03;95389.41;;;18.62;33.90
23172;BME280;11754;42.664;23.594;2023-04-29T08:12:29;95384.22;;;18.67;33.94
23172;BME280;11754;42.664;23.594;2023-04-29T08:14:55;95390.38;;;18.92;33.54
23172;BME280;11754;42.664;23.594;2023-04-29T08:17:20;95381.06;;;18.52;33.81
23172;BME280;11754;42.664;23.594;2023-04-29T08:33:12;95369.31;;;19.58;31.19
23172;BME280;11754;42.664;23.594;2023-04-29T08:35:38;95369.63;;;19.50;30.30
23172;BME280;11754;42.664;23.594;2023-04-29T08:38:05;95359.94;;;19.85;30.14
23172;BME280;11754;42.664;23.594;2023-04-29T08:40:33;95357.59;;;19.77;29.72
23172;BME280;11754;42.664;23.594;2023-04-29T08:53:23;95349.63;;;22.85;25.71
23172;BME280;11754;42.664;23.594;2023-04-29T08:55:49;95339.38;;;23.59;25.59
23172;BME280;11754;42.664;23.594;2023-04-29T08:58:14;95337.19;;;24.32;25.37
23172;BME280;11754;42.664;23.594;2023-04-29T09:00:43;95334.44;;;24.54;24.44
23172;BME280;11754;42.664;23.594;2023-04-29T09:12:48;95330.09;;;25.23;20.97
23172;BME280;11754;42.664;23.594;2023-04-29T09:15:14;95326.13;;;26.29;19.84
23172;BME280;11754;42.664;23.594;2023-04-29T09:17:45;95321.31;;;26.77;20.75
23172;BME280;11754;42.664;23.594;2023-04-29T09:33:06;95298.25;;;28.30;18.77
23172;BME280;11754;42.664;23.594;2023-04-29T09:35:32;95298.69;;;28.81;16.50
23172;BME280;11754;42.664;23.594;2023-04-29T09:38:15;95280.97;;;29.18;16.90
23172;BME280;11754;42.664;23.594;2023-04-29T09:40:41;95277.66;;;31.79;15.54
23172;BME280;11754;42.664;23.594;2023-04-29T09:43:14;95273.25;;;33.97;13.97
23172;BME280;11754;42.664;23.594;2023-04-29T09:45:44;95267.38;;;37.06;11.75
23172;BME280;11754;42.664;23.594;2023-04-29T09:48:11;95257.38;;;37.59;10.38
23172;BME280;11754;42.664;23.594;2023-04-29T09:50:37;95248.06;;;38.12;10.53
23172;BME280;11754;42.664;23.594;2023-04-29T09:53:08;95248.13;;;39.28;9.68
23172;BME280;11754;42.664;23.594;2023-04-29T09:55:35;95247.75;;;38.30;9.07
23172;BME280;11754;42.664;23.594;2023-04-29T09:58:01;95239.91;;;37.18;10.46
23172;BME280;11754;42.664;23.594;2023-04-29T10:00:30;95244.47;;;39.40;9.64
23172;BME280;11754;42.664;23.594;2023-04-29T10:02:57;95241.72;;;41.99;7.97
23172;BME280;11754;42.664;23.594;2023-04-29T10:05:27;95230.25;;;43.32;8.00
23172;BME280;11754;42.664;23.594;2023-04-29T10:07:54;95226.44;;;42.09;8.75
23172;BME280;11754;42.664;23.594;2023-04-29T10:10:20;95217.69;;;44.88;7.77
23172;BME280;11754;42.664;23.594;2023-04-29T10:12:47;95211.59;;;46.54;6.45
23172;BME280;11754;42.664;23.594;2023-04-29T10:15:24;95209.22;;;47.75;6.08
23172;BME280;11754;42.664;23.594;2023-04-29T10:17:57;95201.66;;;49.59;5.11
23172;BME280;11754;42.664;23.594;2023-04-29T10:20:24;95200.47;;;51.19;4.62
23172;BME280;11754;42.664;23.594;2023-04-29T10:33:00;95177.84;;;54.22;3.39
23172;BME280;11754;42.664;23.594;2023-04-29T10:35:27;95181.06;;;55.58;3.49
23172;BME280;11754;42.664;23.594;2023-04-29T10:37:55;95165.44;;;52.60;3.93
23172;BME280;11754;42.664;23.594;2023-04-29T10:40:29;95166.50;;;50.61;3.95
23172;BME280;11754;42.664;23.594;2023-04-29T10:42:55;95170.50;;;50.60;3.95
23172;BME280;11754;42.664;23.594;2023-04-29T10:45:31;95151.88;;;50.50;4.39
23172;BME280;11754;42.664;23.594;2023-04-29T10:55:00;95159.41;;;51.58;4.04
23172;BME280;11754;42.664;23.594;2023-04-29T10:57:25;95158.53;;;53.98;3.67
23172;BME280;11754;42.664;23.594;2023-04-29T10:59:52;95157.44;;;55.33;3.24
23172;BME280;11754;42.664;23.594;2023-04-29T11:02:18;95154.22;;;55.62;3.29
23172;BME280;11754;42.664;23.594;2023-04-29T11:08:19;95149.03;;;49.70;4.89
23172;BME280;11754;42.664;23.594;2023-04-29T11:10:51;95150.41;;;48.23;4.96
23172;BME280;11754;42.664;23.594;2023-04-29T11:13:24;95135.63;;;46.99;5.28
23172;BME280;11754;42.664;23.594;2023-04-29T11:18:28;95148.09;;;45.92;5.72
23172;BME280;11754;42.664;23.594;2023-04-29T11:23:39;95155.56;;;41.02;7.36
23172;BME280;11754;42.664;23.594;2023-04-29T11:26:05;95149.91;;;35.61;9.67
23172;BME280;11754;42.664;23.594;2023-04-29T11:35:16;95161.84;;;32.66;12.03
23172;BME280;11754;42.664;23.594;2023-04-29T11:37:43;95156.09;;;32.76;12.13
23172;BME280;11754;42.664;23.594;2023-04-29T11:40:10;95166.03;;;32.41;12.84
23172;BME280;11754;42.664;23.594;2023-04-29T11:42:47;95163.13;;;32.15;13.53
23172;BME280;11754;42.664;23.594;2023-04-29T11:45:13;95152.34;;;31.88;13.42
23172;BME280;11754;42.664;23.594;2023-04-29T11:47:43;95159.31;;;31.44;13.10
23172;BME280;11754;42.664;23.594;2023-04-29T11:50:10;95151.53;;;31.73;13.36
23172;BME280;11754;42.664;23.594;2023-04-29T11:52:37;95153.59;;;32.04;13.24
23172;BME280;11754;42.664;23.594;2023-04-29T11:55:04;95143.53;;;31.91;13.96
23172;BME280;11754;42.664;23.594;2023-04-29T11:57:30;95146.22;;;31.68;14.13
23172;BME280;11754;42.664;23.594;2023-04-29T11:59:59;95151.13;;;31.44;13.90
23172;BME280;11754;42.664;23.594;2023-04-29T12:02:31;95149.25;;;30.89;14.77
23172;BME280;11754;42.664;23.594;2023-04-29T12:05:04;95149.09;;;30.53;15.40
23172;BME280;11754;42.664;23.594;2023-04-29T12:38:28;95139.56;;;25.42;20.62
23172;BME280;11754;42.664;23.594;2023-04-29T12:40:55;95136.34;;;25.55;20.72
23172;BME280;11754;42.664;23.594;2023-04-29T12:43:31;95129.94;;;25.87;20.39
23172;BME280;11754;42.664;23.594;2023-04-29T12:46:04;95150.97;;;26.31;19.67
23172;BME280;11754;42.664;23.594;2023-04-29T12:48:37;95139.06;;;26.37;19.50
23172;BME280;11754;42.664;23.594;2023-04-29T12:54:24;95139.31;;;26.41;20.04
23172;BME280;11754;42.664;23.594;2023-04-29T12:56:49;95142.88;;;26.16;19.88
23172;BME280;11754;42.664;23.594;2023-04-29T12:59:15;95145.53;;;25.75;19.98
23172;BME280;11754;42.664;23.594;2023-04-29T13:01:41;95132.03;;;25.59;20.45
23172;BME280;11754;42.664;23.594;2023-04-29T13:04:06;95144.72;;;25.59;21.28
23172;BME280;11754;42.664;23.594;2023-04-29T13:06:34;95142.84;;;25.70;21.18
23172;BME280;11754;42.664;23.594;2023-04-29T13:09:06;95145.59;;;26.00;20.79
23172;BME280;11754;42.664;23.594;2023-04-29T13:11:36;95131.22;;;26.30;21.39
23172;BME280;11754;42.664;23.594;2023-04-29T13:14:02;95120.88;;;26.63;21.28
23172;BME280;11754;42.664;23.594;2023-04-29T13:16:29;95123.28;;;26.75;20.51
23172;BME280;11754;42.664;23.594;2023-04-29T13:18:54;95138.97;;;26.78;20.99
23172;BME280;11754;42.664;23.594;2023-04-29T13:21:21;95133.50;;;26.88;19.85
23172;BME280;11754;42.664;23.594;2023-04-29T13:23:47;95124.53;;;28.74;18.27
23172;BME280;11754;42.664;23.594;2023-04-29T13:26:13;95133.03;;;29.72;17.46
23172;BME280;11754;42.664;23.594;2023-04-29T13:28:38;95127.94;;;29.28;17.18
23172;BME280;11754;42.664;23.594;2023-04-29T13:31:04;95136.06;;;29.09;18.12
23172;BME280;11754;42.664;23.594;2023-04-29T13:33:29;95123.25;;;28.66;17.92
23172;BME280;11754;42.664;23.594;2023-04-29T13:35:54;95123.53;;;28.12;19.40
23172;BME280;11754;42.664;23.594;2023-04-29T13:38:20;95126.47;;;27.86;19.14
23172;BME280;11754;42.664;23.594;2023-04-29T13:40:45;95121.75;;;27.63;19.88
23172;BME280;11754;42.664;23.594;2023-04-29T13:43:11;95120.72;;;27.53;19.30
23172;BME280;11754;42.664;23.594;2023-04-29T13:45:36;95114.56;;;27.82;19.07
23172;BME280;11754;42.664;23.594;2023-04-29T13:48:02;95118.66;;;28.43;18.69
23172;BME280;11754;42.664;23.594;2023-04-29T13:50:27;95114.53;;;29.36;17.33
23172;BME280;11754;42.664;23.594;2023-04-29T13:52:53;95111.00;;;29.74;17.65
23172;BME280;11754;42.664;23.594;2023-04-29T13:55:19;95103.31;;;30.27;17.21
23172;BME280;11754;42.664;23.594;2023-04-29T13:57:45;95111.53;;;29.89;16.91
23172;BME280;11754;42.664;23.594;2023-04-29T14:00:11;95110.38;;;29.96;17.47
23172;BME280;11754;42.664;23.594;2023-04-29T14:02:37;95103.06;;;29.39;17.21
23172;BME280;11754;42.664;23.594;2023-04-29T14:05:02;95091.34;;;29.25;18.00
23172;BME280;11754;42.664;23.594;2023-04-29T14:10:49;95111.06;;;28.88;19.69
23172;BME280;11754;42.664;23.594;2023-04-29T14:13:15;95110.44;;;28.19;19.46
23172;BME280;11754;42.664;23.594;2023-04-29T14:15:41;95100.59;;;27.65;20.33
23172;BME280;11754;42.664;23.594;2023-04-29T14:18:07;95110.50;;;27.40;20.70
23172;BME280;11754;42.664;23.594;2023-04-29T14:20:33;95100.94;;;27.08;20.99
23172;BME280;11754;42.664;23.594;2023-04-29T14:22:59;95106.31;;;27.19;20.62
23172;BME280;11754;42.664;23.594;2023-04-29T14:25:24;95107.72;;;27.06;20.55
23172;BME280;11754;42.664;23.594;2023-04-29T14:27:50;95115.78;;;27.21;20.67
23172;BME280;11754;42.664;23.594;2023-04-29T14:30:15;95114.97;;;27.21;21.28
23172;BME280;11754;42.664;23.594;2023-04-29T14:32:40;95105.56;;;27.03;21.12
23172;BME280;11754;42.664;23.594;2023-04-29T14:35:06;95102.28;;;26.31;20.91
23172;BME280;11754;42.664;23.594;2023-04-29T14:37:31;95113.69;;;25.51;22.13
23172;BME280;11754;42.664;23.594;2023-04-29T14:39:57;95107.03;;;24.91;22.46
23172;BME280;11754;42.664;23.594;2023-04-29T14:42:22;95121.88;;;23.61;24.06
23172;BME280;11754;42.664;23.594;2023-04-29T14:44:48;95108.81;;;23.75;24.52
23172;BME280;11754;42.664;23.594;2023-04-29T14:47:13;95111.16;;;23.98;24.30
23172;BME280;11754;42.664;23.594;2023-04-29T14:49:38;95107.81;;;24.24;24.43
23172;BME280;11754;42.664;23.594;2023-04-29T14:52:05;95094.50;;;24.49;23.76
23172;BME280;11754;42.664;23.594;2023-04-29T14:54:30;95101.13;;;24.94;23.21
23172;BME280;11754;42.664;23.594;2023-04-29T14:56:55;95099.09;;;25.37;22.42
23172;BME280;11754;42.664;23.594;2023-04-29T14:59:21;95102.88;;;25.67;22.19
23172;BME280;11754;42.664;23.594;2023-04-29T15:01:47;95098.03;;;25.84;21.51
23172;BME280;11754;42.664;23.594;2023-04-29T15:04:12;95086.94;;;25.70;21.86
23172;BME280;11754;42.664;23.594;2023-04-29T15:06:38;95094.78;;;25.56;21.89
23172;BME280;11754;42.664;23.594;2023-04-29T15:09:05;95081.53;;;25.29;22.41
23172;BME280;11754;42.664;23.594;2023-04-29T15:11:30;95078.50;;;25.00;22.76
23172;BME280;11754;42.664;23.594;2023-04-29T15:13:55;95083.69;;;24.44;22.51
23172;BME280;11754;42.664;23.594;2023-04-29T15:16:21;95091.06;;;23.47;23.07
23172;BME280;11754;42.664;23.594;2023-04-29T15:18:46;95087.50;;;23.09;24.39
23172;BME280;11754;42.664;23.594;2023-04-29T15:21:12;95087.53;;;23.14;24.30
23172;BME280;11754;42.664;23.594;2023-04-29T15:23:38;95081.19;;;23.25;24.60
23172;BME280;11754;42.664;23.594;2023-04-29T15:26:04;95091.41;;;23.23;23.82
23172;BME280;11754;42.664;23.594;2023-04-29T15:28:31;95084.75;;;23.04;24.21
23172;BME280;11754;42.664;23.594;2023-04-29T15:30:56;95076.81;;;22.92;24.46
23172;BME280;11754;42.664;23.594;2023-04-29T15:33:23;95074.06;;;22.87;24.60
23172;BME280;11754;42.664;23.594;2023-04-29T15:35:49;95072.94;;;22.83;24.52
23172;BME280;11754;42.664;23.594;2023-04-29T15:38:15;95081.97;;;22.50;25.51
23172;BME280;11754;42.664;23.594;2023-04-29T15:40:40;95070.03;;;22.02;25.63
23172;BME280;11754;42.664;23.594;2023-04-29T15:43:06;95082.66;;;22.01;25.53
23172;BME280;11754;42.664;23.594;2023-04-29T15:45:31;95080.72;;;21.80;25.63
23172;BME280;11754;42.664;23.594;2023-04-29T15:47:57;95068.22;;;21.52;26.02
23172;BME280;11754;42.664;23.594;2023-04-29T15:50:22;95066.91;;;21.38;26.94
23172;BME280;11754;42.664;23.594;2023-04-29T15:52:47;95086.69;;;21.20;26.63
23172;BME280;11754;42.664;23.594;2023-04-29T15:55:16;95082.47;;;21.07;27.01
23172;BME280;11754;42.664;23.594;2023-04-29T15:57:41;95074.72;;;20.94;27.11
23172;BME280;11754;42.664;23.594;2023-04-29T16:00:07;95074.16;;;20.92;26.89
23172;BME280;11754;42.664;23.594;2023-04-29T16:02:33;95080.38;;;20.80;27.33
23172;BME280;11754;42.664;23.594;2023-04-29T16:04:58;95070.41;;;20.64;27.62
23172;BME280;11754;42.664;23.594;2023-04-29T16:07:23;95084.66;;;20.41;28.37
23172;BME280;11754;42.664;23.594;2023-04-29T16:09:49;95084.03;;;20.10;29.08
23172;BME280;11754;42.664;23.594;2023-04-29T16:12:14;95086.72;;;19.99;29.78
23172;BME280;11754;42.664;23.594;2023-04-29T16:14:40;95080.19;;;19.59;31.68
23172;BME280;11754;42.664;23.594;2023-04-29T16:17:05;95093.41;;;19.42;33.15
23172;BME280;11754;42.664;23.594;2023-04-29T16:19:30;95081.28;;;19.16;33.85
23172;BME280;11754;42.664;23.594;2023-04-29T16:21:56;95083.78;;;19.00;34.13
23172;BME280;11754;42.664;23.594;2023-04-29T16:24:21;95091.38;;;18.72;34.65
23172;BME280;11754;42.664;23.594;2023-04-29T16:26:47;95092.19;;;18.55;34.85
23172;BME280;11754;42.664;23.594;2023-04-29T16:29:12;95091.31;;;18.24;36.72
23172;BME280;11754;42.664;23.594;2023-04-29T16:31:38;95101.78;;;18.07;39.16
23172;BME280;11754;42.664;23.594;2023-04-29T16:34:03;95105.25;;;17.89;40.34
23172;BME280;11754;42.664;23.594;2023-04-29T16:36:30;95105.75;;;17.80;40.32
23172;BME280;11754;42.664;23.594;2023-04-29T16:38:55;95105.41;;;17.69;41.46
23172;BME280;11754;42.664;23.594;2023-04-29T16:41:22;95108.84;;;17.51;42.31
23172;BME280;11754;42.664;23.594;2023-04-29T16:43:48;95099.94;;;17.39;41.26
23172;BME280;11754;42.664;23.594;2023-04-29T16:46:14;95099.59;;;17.29;42.42
23172;BME280;11754;42.664;23.594;2023-04-29T16:48:39;95123.03;;;17.20;42.65
23172;BME280;11754;42.664;23.594;2023-04-29T16:51:05;95097.34;;;17.01;42.94
23172;BME280;11754;42.664;23.594;2023-04-29T16:53:30;95109.22;;;16.98;42.50
23172;BME280;11754;42.664;23.594;2023-04-29T16:55:56;95115.44;;;16.92;41.61
23172;BME280;11754;42.664;23.594;2023-04-29T16:58:21;95102.53;;;16.89;42.25
23172;BME280;11754;42.664;23.594;2023-04-29T17:00:47;95125.59;;;17.02;42.44
23172;BME280;11754;42.664;23.594;2023-04-29T17:03:12;95114.56;;;16.98;43.49
23172;BME280;11754;42.664;23.594;2023-04-29T17:05:38;95123.16;;;17.00;44.31
23172;BME280;11754;42.664;23.594;2023-04-29T17:08:04;95121.13;;;17.02;42.81
23172;BME280;11754;42.664;23.594;2023-04-29T17:10:29;95126.88;;;16.99;43.38
23172;BME280;11754;42.664;23.594;2023-04-29T17:12:55;95125.59;;;17.02;42.93
23172;BME280;11754;42.664;23.594;2023-04-29T17:15:20;95130.13;;;17.01;42.78
23172;BME280;11754;42.664;23.594;2023-04-29T17:17:46;95124.44;;;16.91;43.21
23172;BME280;11754;42.664;23.594;2023-04-29T17:23:36;95130.66;;;16.78;44.02
23172;BME280;11754;42.664;23.594;2023-04-29T17:26:03;95124.09;;;16.81;44.38
23172;BME280;11754;42.664;23.594;2023-04-29T17:28:28;95125.34;;;16.72;44.73
23172;BME280;11754;42.664;23.594;2023-04-29T17:30:54;95123.31;;;16.74;44.98
23172;BME280;11754;42.664;23.594;2023-04-29T17:33:24;95127.44;;;16.63;45.16
23172;BME280;11754;42.664;23.594;2023-04-29T17:35:58;95128.69;;;16.61;44.93
23172;BME280;11754;42.664;23.594;2023-04-29T17:38:26;95126.25;;;16.52;44.90
23172;BME280;11754;42.664;23.594;2023-04-29T17:40:51;95143.69;;;16.48;45.52
23172;BME280;11754;42.664;23.594;2023-04-29T17:43:16;95136.91;;;16.52;45.67
23172;BME280;11754;42.664;23.594;2023-04-29T17:45:42;95137.75;;;16.46;45.70
23172;BME280;11754;42.664;23.594;2023-04-29T17:48:07;95143.72;;;16.42;46.60
23172;BME280;11754;42.664;23.594;2023-04-29T17:53:58;95151.41;;;16.05;49.61
23172;BME280;11754;42.664;23.594;2023-04-29T17:56:24;95146.91;;;15.99;50.41
23172;BME280;11754;42.664;23.594;2023-04-29T17:58:50;95147.31;;;15.96;50.68
23172;BME280;11754;42.664;23.594;2023-04-29T18:01:16;95143.03;;;15.88;50.22
23172;BME280;11754;42.664;23.594;2023-04-29T18:03:41;95132.16;;;15.83;50.92
23172;BME280;11754;42.664;23.594;2023-04-29T18:23:21;95159.19;;;15.80;54.08
23172;BME280;11754;42.664;23.594;2023-04-29T18:25:47;95162.88;;;15.79;54.06
23172;BME280;11754;42.664;23.594;2023-04-29T18:28:12;95160.84;;;15.81;54.91
23172;BME280;11754;42.664;23.594;2023-04-29T18:30:38;95163.28;;;15.62;56.12
23172;BME280;11754;42.664;23.594;2023-04-29T18:33:03;95170.63;;;15.47;56.79
23172;BME280;11754;42.664;23.594;2023-04-29T18:35:28;95154.25;;;15.24;57.34
23172;BME280;11754;42.664;23.594;2023-04-29T18:37:54;95177.75;;;15.27;57.51
23172;BME280;11754;42.664;23.594;2023-04-29T18:40:19;95161.59;;;15.08;57.41
23172;BME280;11754;42.664;23.594;2023-04-29T18:42:45;95156.03;;;15.03;57.45
23172;BME280;11754;42.664;23.594;2023-04-29T18:45:10;95166.88;;;14.95;57.32
23172;BME280;11754;42.664;23.594;2023-04-29T18:47:35;95169.31;;;14.90;56.85
23172;BME280;11754;42.664;23.594;2023-04-29T18:50:01;95170.31;;;14.82;56.91
23172;BME280;11754;42.664;23.594;2023-04-29T18:52:27;95170.47;;;14.74;56.87
23172;BME280;11754;42.664;23.594;2023-04-29T18:54:53;95186.03;;;14.84;56.85
23172;BME280;11754;42.664;23.594;2023-04-29T18:57:18;95191.78;;;14.94;56.36
23172;BME280;11754;42.664;23.594;2023-04-29T18:59:43;95185.50;;;15.08;56.25
23172;BME280;11754;42.664;23.594;2023-04-29T19:02:09;95182.81;;;15.02;55.64
23172;BME280;11754;42.664;23.594;2023-04-29T19:21:23;95179.31;;;14.40;55.90
23172;BME280;11754;42.664;23.594;2023-04-29T19:23:49;95180.47;;;14.31;55.43
23172;BME280;11754;42.664;23.594;2023-04-29T19:26:15;95180.03;;;14.27;55.76
23172;BME280;11754;42.664;23.594;2023-04-29T19:28:40;95184.16;;;14.30;55.70
23172;BME280;11754;42.664;23.594;2023-04-29T19:31:05;95184.91;;;14.24;56.13
23172;BME280;11754;42.664;23.594;2023-04-29T19:33:31;95185.72;;;14.24;56.01
23172;BME280;11754;42.664;23.594;2023-04-29T19:35:56;95189.63;;;14.22;56.26
23172;BME280;11754;42.664;23.594;2023-04-29T19:58:32;95168.47;;;14.00;56.52
23172;BME280;11754;42.664;23.594;2023-04-29T20:00:57;95181.34;;;14.03;56.50
23172;BME280;11754;42.664;23.594;2023-04-29T20:03:23;95181.09;;;13.98;56.58
23172;BME280;11754;42.664;23.594;2023-04-29T20:05:49;95172.91;;;13.93;56.19
23172;BME280;11754;42.664;23.594;2023-04-29T20:08:15;95176.19;;;13.95;56.56
23172;BME280;11754;42.664;23.594;2023-04-29T20:10:40;95170.06;;;13.94;56.58
23172;BME280;11754;42.664;23.594;2023-04-29T20:13:06;95177.03;;;14.02;57.09
23172;BME280;11754;42.664;23.594;2023-04-29T20:15:32;95177.91;;;14.09;57.30
23172;BME280;11754;42.664;23.594;2023-04-29T20:17:57;95176.66;;;14.05;57.35
23172;BME280;11754;42.664;23.594;2023-04-29T20:20:23;95168.47;;;14.00;57.61
23172;BME280;11754;42.664;23.594;2023-04-29T20:22:49;95163.50;;;13.90;57.99
23172;BME280;11754;42.664;23.594;2023-04-29T20:25:14;95166.13;;;13.84;58.13
23172;BME280;11754;42.664;23.594;2023-04-29T20:27:40;95168.69;;;13.70;59.10